Ashintilly, Georgia
Current Conditions -  °F | °C
As of 9:15 AM on Wednesday 26 Nov 2014 (Local Time) from KBQK Reporting Station
Overcast Overcast  
Wind Chill: 10°   Ceiling: 700
Heat Index: 10°   Visibility: 10mi
Dew Point:   Wind: 6mph
Humidity: 94%   Direction: 290°WNW
Pressure: 30.08"   Gusts: NA
Location:  31.5632°N, 81.4638°W
Report Text: KBQK 261415Z AUTO 29005KT 10SM OVC007 10/09 A3008 RMK AO1
Loading
Personal Weather Stations






























Interactive Weather Map New forecast layout! Learn more

10-Day Weather Forecast

Advertisements
Track Severe Weather on mobile